sensor_id;sensor_type;location;lat;lon;timestamp;P1;durP1;ratioP1;P2;durP2;ratioP2
76758;SDS011;65701;45.588;5.186;2023-07-30T00:01:55;9.00;;;8.25;;
76758;SDS011;65701;45.588;5.186;2023-07-30T00:04:20;8.50;;;8.00;;
76758;SDS011;65701;45.588;5.186;2023-07-30T00:06:46;9.50;;;8.50;;
76758;SDS011;65701;45.588;5.186;2023-07-30T00:09:11;9.50;;;7.75;;
76758;SDS011;65701;45.588;5.186;2023-07-30T00:11:37;10.00;;;8.50;;
76758;SDS011;65701;45.588;5.186;2023-07-30T00:14:02;9.50;;;6.75;;
76758;SDS011;65701;45.588;5.186;2023-07-30T00:16:28;8.50;;;7.00;;
76758;SDS011;65701;45.588;5.186;2023-07-30T00:18:53;8.75;;;7.25;;
76758;SDS011;65701;45.588;5.186;2023-07-30T00:21:19;9.00;;;9.00;;
76758;SDS011;65701;45.588;5.186;2023-07-30T00:23:44;9.50;;;9.25;;
76758;SDS011;65701;45.588;5.186;2023-07-30T00:26:09;7.25;;;6.25;;
76758;SDS011;65701;45.588;5.186;2023-07-30T00:28:35;8.50;;;7.50;;
76758;SDS011;65701;45.588;5.186;2023-07-30T00:31:00;7.50;;;7.50;;
76758;SDS011;65701;45.588;5.186;2023-07-30T00:33:26;8.00;;;7.50;;
76758;SDS011;65701;45.588;5.186;2023-07-30T00:35:51;7.25;;;7.00;;
76758;SDS011;65701;45.588;5.186;2023-07-30T00:38:17;13.50;;;9.50;;
76758;SDS011;65701;45.588;5.186;2023-07-30T00:40:43;8.75;;;8.50;;
76758;SDS011;65701;45.588;5.186;2023-07-30T00:43:09;9.50;;;9.00;;
76758;SDS011;65701;45.588;5.186;2023-07-30T00:45:35;7.50;;;7.50;;
76758;SDS011;65701;45.588;5.186;2023-07-30T00:48:01;9.25;;;7.75;;
76758;SDS011;65701;45.588;5.186;2023-07-30T00:50:27;8.25;;;8.25;;
76758;SDS011;65701;45.588;5.186;2023-07-30T00:52:52;8.75;;;8.75;;
76758;SDS011;65701;45.588;5.186;2023-07-30T00:55:18;9.00;;;8.00;;
76758;SDS011;65701;45.588;5.186;2023-07-30T00:57:43;10.25;;;9.00;;
76758;SDS011;65701;45.588;5.186;2023-07-30T01:00:10;10.25;;;7.50;;
76758;SDS011;65701;45.588;5.186;2023-07-30T01:02:37;8.00;;;7.75;;
76758;SDS011;65701;45.588;5.186;2023-07-30T01:05:03;8.75;;;7.00;;
76758;SDS011;65701;45.588;5.186;2023-07-30T01:07:29;7.75;;;6.50;;
76758;SDS011;65701;45.588;5.186;2023-07-30T01:09:58;9.25;;;6.00;;
76758;SDS011;65701;45.588;5.186;2023-07-30T01:12:25;8.75;;;8.00;;
76758;SDS011;65701;45.588;5.186;2023-07-30T01:14:52;9.50;;;9.00;;
76758;SDS011;65701;45.588;5.186;2023-07-30T01:17:20;5.25;;;5.25;;
76758;SDS011;65701;45.588;5.186;2023-07-30T01:19:47;10.75;;;8.50;;
76758;SDS011;65701;45.588;5.186;2023-07-30T01:22:14;7.50;;;7.50;;
76758;SDS011;65701;45.588;5.186;2023-07-30T01:24:40;9.00;;;8.75;;
76758;SDS011;65701;45.588;5.186;2023-07-30T01:27:07;8.50;;;8.50;;
76758;SDS011;65701;45.588;5.186;2023-07-30T01:29:38;8.75;;;8.75;;
76758;SDS011;65701;45.588;5.186;2023-07-30T01:32:07;9.00;;;7.75;;
76758;SDS011;65701;45.588;5.186;2023-07-30T01:34:36;9.75;;;9.75;;
76758;SDS011;65701;45.588;5.186;2023-07-30T01:37:08;9.00;;;7.25;;
76758;SDS011;65701;45.588;5.186;2023-07-30T01:39:36;9.00;;;7.25;;
76758;SDS011;65701;45.588;5.186;2023-07-30T01:42:03;10.00;;;9.00;;
76758;SDS011;65701;45.588;5.186;2023-07-30T01:44:29;9.25;;;9.25;;
76758;SDS011;65701;45.588;5.186;2023-07-30T01:46:54;7.75;;;7.75;;
76758;SDS011;65701;45.588;5.186;2023-07-30T01:49:20;9.50;;;9.00;;
76758;SDS011;65701;45.588;5.186;2023-07-30T01:51:45;9.25;;;8.00;;
76758;SDS011;65701;45.588;5.186;2023-07-30T01:54:11;8.00;;;7.00;;
76758;SDS011;65701;45.588;5.186;2023-07-30T01:56:36;9.00;;;8.50;;
76758;SDS011;65701;45.588;5.186;2023-07-30T01:59:02;8.50;;;7.00;;
76758;SDS011;65701;45.588;5.186;2023-07-30T02:01:27;9.50;;;7.50;;
76758;SDS011;65701;45.588;5.186;2023-07-30T02:03:53;9.25;;;9.00;;
76758;SDS011;65701;45.588;5.186;2023-07-30T02:06:18;9.50;;;9.50;;
76758;SDS011;65701;45.588;5.186;2023-07-30T02:08:44;8.25;;;8.25;;
76758;SDS011;65701;45.588;5.186;2023-07-30T02:11:09;10.25;;;9.00;;
76758;SDS011;65701;45.588;5.186;2023-07-30T02:13:34;8.00;;;8.00;;
76758;SDS011;65701;45.588;5.186;2023-07-30T02:16:00;8.00;;;8.00;;
76758;SDS011;65701;45.588;5.186;2023-07-30T02:18:25;10.25;;;10.25;;
76758;SDS011;65701;45.588;5.186;2023-07-30T02:20:51;9.25;;;9.25;;
76758;SDS011;65701;45.588;5.186;2023-07-30T02:23:16;7.25;;;7.25;;
76758;SDS011;65701;45.588;5.186;2023-07-30T02:25:42;9.25;;;9.00;;
76758;SDS011;65701;45.588;5.186;2023-07-30T02:28:08;9.50;;;8.25;;
76758;SDS011;65701;45.588;5.186;2023-07-30T02:30:34;10.25;;;8.50;;
76758;SDS011;65701;45.588;5.186;2023-07-30T02:32:59;9.00;;;9.00;;
76758;SDS011;65701;45.588;5.186;2023-07-30T02:35:25;10.50;;;8.75;;
76758;SDS011;65701;45.588;5.186;2023-07-30T02:37:50;8.25;;;8.25;;
76758;SDS011;65701;45.588;5.186;2023-07-30T02:40:16;9.50;;;8.75;;
76758;SDS011;65701;45.588;5.186;2023-07-30T02:42:41;7.25;;;7.25;;
76758;SDS011;65701;45.588;5.186;2023-07-30T02:45:07;9.50;;;9.50;;
76758;SDS011;65701;45.588;5.186;2023-07-30T02:47:33;10.25;;;9.00;;
76758;SDS011;65701;45.588;5.186;2023-07-30T02:49:58;7.50;;;7.00;;
76758;SDS011;65701;45.588;5.186;2023-07-30T02:52:23;9.00;;;8.25;;
76758;SDS011;65701;45.588;5.186;2023-07-30T02:54:49;8.75;;;8.75;;
76758;SDS011;65701;45.588;5.186;2023-07-30T02:57:14;9.50;;;8.50;;
76758;SDS011;65701;45.588;5.186;2023-07-30T02:59:40;9.00;;;7.50;;
76758;SDS011;65701;45.588;5.186;2023-07-30T03:02:05;6.50;;;6.25;;
76758;SDS011;65701;45.588;5.186;2023-07-30T03:04:31;6.75;;;6.75;;
76758;SDS011;65701;45.588;5.186;2023-07-30T03:06:57;8.00;;;8.00;;
76758;SDS011;65701;45.588;5.186;2023-07-30T03:09:22;9.00;;;8.25;;
76758;SDS011;65701;45.588;5.186;2023-07-30T03:11:52;7.25;;;7.25;;
76758;SDS011;65701;45.588;5.186;2023-07-30T03:14:18;7.50;;;7.25;;
76758;SDS011;65701;45.588;5.186;2023-07-30T03:16:47;9.25;;;8.25;;
76758;SDS011;65701;45.588;5.186;2023-07-30T03:19:12;8.25;;;8.25;;
76758;SDS011;65701;45.588;5.186;2023-07-30T03:21:38;5.00;;;5.00;;
76758;SDS011;65701;45.588;5.186;2023-07-30T03:24:04;11.50;;;9.00;;
76758;SDS011;65701;45.588;5.186;2023-07-30T03:26:29;8.75;;;7.50;;
76758;SDS011;65701;45.588;5.186;2023-07-30T03:28:55;5.50;;;5.50;;
76758;SDS011;65701;45.588;5.186;2023-07-30T03:31:20;10.00;;;7.00;;
76758;SDS011;65701;45.588;5.186;2023-07-30T03:33:46;8.25;;;8.25;;
76758;SDS011;65701;45.588;5.186;2023-07-30T03:36:12;9.00;;;8.50;;
76758;SDS011;65701;45.588;5.186;2023-07-30T03:38:42;9.75;;;6.50;;
76758;SDS011;65701;45.588;5.186;2023-07-30T03:41:08;9.25;;;9.00;;
76758;SDS011;65701;45.588;5.186;2023-07-30T03:43:34;7.50;;;7.50;;
76758;SDS011;65701;45.588;5.186;2023-07-30T03:45:59;10.75;;;9.25;;
76758;SDS011;65701;45.588;5.186;2023-07-30T03:48:25;6.25;;;6.25;;
76758;SDS011;65701;45.588;5.186;2023-07-30T03:50:50;7.50;;;7.50;;
76758;SDS011;65701;45.588;5.186;2023-07-30T03:53:16;9.25;;;5.75;;
76758;SDS011;65701;45.588;5.186;2023-07-30T03:55:42;10.00;;;8.00;;
76758;SDS011;65701;45.588;5.186;2023-07-30T03:58:07;6.75;;;6.75;;
76758;SDS011;65701;45.588;5.186;2023-07-30T04:00:33;6.75;;;6.25;;
76758;SDS011;65701;45.588;5.186;2023-07-30T04:02:58;7.50;;;5.25;;
76758;SDS011;65701;45.588;5.186;2023-07-30T04:05:24;9.50;;;8.00;;
76758;SDS011;65701;45.588;5.186;2023-07-30T04:07:49;7.00;;;7.00;;
76758;SDS011;65701;45.588;5.186;2023-07-30T04:10:15;5.75;;;4.50;;
76758;SDS011;65701;45.588;5.186;2023-07-30T04:12:40;7.50;;;7.50;;
76758;SDS011;65701;45.588;5.186;2023-07-30T04:15:06;9.25;;;9.25;;
76758;SDS011;65701;45.588;5.186;2023-07-30T04:17:32;8.25;;;8.25;;
76758;SDS011;65701;45.588;5.186;2023-07-30T04:19:57;7.75;;;7.75;;
76758;SDS011;65701;45.588;5.186;2023-07-30T04:22:23;7.25;;;6.25;;
76758;SDS011;65701;45.588;5.186;2023-07-30T04:24:49;5.75;;;5.00;;
76758;SDS011;65701;45.588;5.186;2023-07-30T04:27:14;8.00;;;6.50;;
76758;SDS011;65701;45.588;5.186;2023-07-30T04:29:40;9.00;;;8.00;;
76758;SDS011;65701;45.588;5.186;2023-07-30T04:32:05;8.25;;;8.25;;
76758;SDS011;65701;45.588;5.186;2023-07-30T04:34:31;6.25;;;6.25;;
76758;SDS011;65701;45.588;5.186;2023-07-30T04:36:57;6.25;;;6.25;;
76758;SDS011;65701;45.588;5.186;2023-07-30T04:39:22;8.00;;;6.75;;
76758;SDS011;65701;45.588;5.186;2023-07-30T04:41:48;4.75;;;4.75;;
76758;SDS011;65701;45.588;5.186;2023-07-30T04:44:13;7.50;;;7.50;;
76758;SDS011;65701;45.588;5.186;2023-07-30T04:46:39;8.00;;;8.00;;
76758;SDS011;65701;45.588;5.186;2023-07-30T04:49:04;7.00;;;7.00;;
76758;SDS011;65701;45.588;5.186;2023-07-30T04:51:30;7.75;;;7.75;;
76758;SDS011;65701;45.588;5.186;2023-07-30T04:53:55;7.75;;;6.75;;
76758;SDS011;65701;45.588;5.186;2023-07-30T04:56:21;6.75;;;6.75;;
76758;SDS011;65701;45.588;5.186;2023-07-30T04:58:46;8.25;;;6.75;;
76758;SDS011;65701;45.588;5.186;2023-07-30T05:01:12;9.00;;;8.00;;
76758;SDS011;65701;45.588;5.186;2023-07-30T05:03:37;9.25;;;7.50;;
76758;SDS011;65701;45.588;5.186;2023-07-30T05:06:03;10.75;;;7.75;;
76758;SDS011;65701;45.588;5.186;2023-07-30T05:08:28;8.25;;;8.25;;
76758;SDS011;65701;45.588;5.186;2023-07-30T05:10:54;9.75;;;9.75;;
76758;SDS011;65701;45.588;5.186;2023-07-30T05:13:19;9.75;;;7.75;;
76758;SDS011;65701;45.588;5.186;2023-07-30T05:15:44;8.75;;;8.75;;
76758;SDS011;65701;45.588;5.186;2023-07-30T05:18:10;8.75;;;8.75;;
76758;SDS011;65701;45.588;5.186;2023-07-30T05:20:35;9.25;;;8.25;;
76758;SDS011;65701;45.588;5.186;2023-07-30T05:23:01;7.75;;;6.75;;
76758;SDS011;65701;45.588;5.186;2023-07-30T05:25:27;9.25;;;9.25;;
76758;SDS011;65701;45.588;5.186;2023-07-30T05:27:53;9.75;;;9.25;;
76758;SDS011;65701;45.588;5.186;2023-07-30T05:30:18;9.00;;;9.00;;
76758;SDS011;65701;45.588;5.186;2023-07-30T05:32:44;8.75;;;8.75;;
76758;SDS011;65701;45.588;5.186;2023-07-30T05:35:09;6.00;;;6.00;;
76758;SDS011;65701;45.588;5.186;2023-07-30T05:37:35;4.50;;;4.50;;
76758;SDS011;65701;45.588;5.186;2023-07-30T05:40:00;6.75;;;6.25;;
76758;SDS011;65701;45.588;5.186;2023-07-30T05:42:25;5.75;;;5.50;;
76758;SDS011;65701;45.588;5.186;2023-07-30T05:44:51;4.75;;;4.75;;
76758;SDS011;65701;45.588;5.186;2023-07-30T05:47:16;6.75;;;6.25;;
76758;SDS011;65701;45.588;5.186;2023-07-30T05:49:42;6.00;;;5.75;;
76758;SDS011;65701;45.588;5.186;2023-07-30T05:52:07;8.00;;;8.00;;
76758;SDS011;65701;45.588;5.186;2023-07-30T05:54:33;8.00;;;7.00;;
76758;SDS011;65701;45.588;5.186;2023-07-30T05:56:58;7.75;;;6.75;;
76758;SDS011;65701;45.588;5.186;2023-07-30T05:59:23;4.75;;;4.75;;
76758;SDS011;65701;45.588;5.186;2023-07-30T06:01:49;9.75;;;6.25;;
76758;SDS011;65701;45.588;5.186;2023-07-30T06:04:14;7.75;;;6.00;;
76758;SDS011;65701;45.588;5.186;2023-07-30T06:06:40;8.25;;;7.50;;
76758;SDS011;65701;45.588;5.186;2023-07-30T06:09:05;9.75;;;7.50;;
76758;SDS011;65701;45.588;5.186;2023-07-30T06:11:31;5.00;;;5.00;;
76758;SDS011;65701;45.588;5.186;2023-07-30T06:13:56;8.50;;;5.50;;
76758;SDS011;65701;45.588;5.186;2023-07-30T06:16:22;2.75;;;2.00;;
76758;SDS011;65701;45.588;5.186;2023-07-30T06:18:47;5.75;;;5.00;;
76758;SDS011;65701;45.588;5.186;2023-07-30T06:21:13;5.25;;;4.00;;
76758;SDS011;65701;45.588;5.186;2023-07-30T06:23:38;9.00;;;8.25;;
76758;SDS011;65701;45.588;5.186;2023-07-30T06:26:04;7.50;;;7.50;;
76758;SDS011;65701;45.588;5.186;2023-07-30T06:28:29;7.25;;;6.00;;
76758;SDS011;65701;45.588;5.186;2023-07-30T06:30:55;7.75;;;7.50;;
76758;SDS011;65701;45.588;5.186;2023-07-30T06:33:20;7.75;;;7.75;;
76758;SDS011;65701;45.588;5.186;2023-07-30T06:35:46;8.25;;;8.25;;
76758;SDS011;65701;45.588;5.186;2023-07-30T06:38:11;7.50;;;7.50;;
76758;SDS011;65701;45.588;5.186;2023-07-30T06:40:36;11.00;;;9.25;;
76758;SDS011;65701;45.588;5.186;2023-07-30T06:43:02;10.75;;;8.00;;
76758;SDS011;65701;45.588;5.186;2023-07-30T06:45:27;14.50;;;12.50;;
76758;SDS011;65701;45.588;5.186;2023-07-30T06:47:53;10.75;;;9.75;;
76758;SDS011;65701;45.588;5.186;2023-07-30T06:50:19;17.00;;;10.75;;
76758;SDS011;65701;45.588;5.186;2023-07-30T06:52:44;13.75;;;13.25;;
76758;SDS011;65701;45.588;5.186;2023-07-30T06:55:09;11.00;;;11.00;;
76758;SDS011;65701;45.588;5.186;2023-07-30T06:57:35;12.75;;;11.00;;
76758;SDS011;65701;45.588;5.186;2023-07-30T07:00:01;11.50;;;11.50;;
76758;SDS011;65701;45.588;5.186;2023-07-30T07:02:27;11.25;;;11.25;;
76758;SDS011;65701;45.588;5.186;2023-07-30T07:04:53;10.50;;;10.50;;
76758;SDS011;65701;45.588;5.186;2023-07-30T07:07:19;11.50;;;11.50;;
76758;SDS011;65701;45.588;5.186;2023-07-30T07:09:45;14.25;;;14.25;;
76758;SDS011;65701;45.588;5.186;2023-07-30T07:12:11;13.25;;;13.25;;
76758;SDS011;65701;45.588;5.186;2023-07-30T07:14:36;18.75;;;16.75;;
76758;SDS011;65701;45.588;5.186;2023-07-30T07:17:02;12.50;;;12.50;;
76758;SDS011;65701;45.588;5.186;2023-07-30T07:19:28;16.25;;;14.25;;
76758;SDS011;65701;45.588;5.186;2023-07-30T07:21:53;15.50;;;15.25;;
76758;SDS011;65701;45.588;5.186;2023-07-30T07:24:19;14.50;;;14.50;;
76758;SDS011;65701;45.588;5.186;2023-07-30T07:26:44;17.25;;;15.25;;
76758;SDS011;65701;45.588;5.186;2023-07-30T07:29:10;15.25;;;13.25;;
76758;SDS011;65701;45.588;5.186;2023-07-30T07:31:35;16.25;;;12.00;;
76758;SDS011;65701;45.588;5.186;2023-07-30T07:34:01;13.25;;;13.25;;
76758;SDS011;65701;45.588;5.186;2023-07-30T07:36:26;12.00;;;11.75;;
76758;SDS011;65701;45.588;5.186;2023-07-30T07:38:52;9.50;;;8.00;;
76758;SDS011;65701;45.588;5.186;2023-07-30T07:41:17;6.00;;;6.00;;
76758;SDS011;65701;45.588;5.186;2023-07-30T07:43:43;6.50;;;6.50;;
76758;SDS011;65701;45.588;5.186;2023-07-30T07:46:09;6.25;;;6.25;;
76758;SDS011;65701;45.588;5.186;2023-07-30T07:48:39;4.50;;;4.50;;
76758;SDS011;65701;45.588;5.186;2023-07-30T07:51:06;6.75;;;5.25;;
76758;SDS011;65701;45.588;5.186;2023-07-30T07:53:32;3.75;;;3.00;;
76758;SDS011;65701;45.588;5.186;2023-07-30T07:55:57;6.00;;;3.00;;
76758;SDS011;65701;45.588;5.186;2023-07-30T07:58:23;4.50;;;3.25;;
76758;SDS011;65701;45.588;5.186;2023-07-30T08:00:48;2.00;;;2.00;;
76758;SDS011;65701;45.588;5.186;2023-07-30T08:03:13;2.00;;;2.00;;
76758;SDS011;65701;45.588;5.186;2023-07-30T08:05:39;3.75;;;3.75;;
76758;SDS011;65701;45.588;5.186;2023-07-30T08:08:04;4.00;;;4.00;;
76758;SDS011;65701;45.588;5.186;2023-07-30T08:10:30;2.00;;;2.00;;
76758;SDS011;65701;45.588;5.186;2023-07-30T08:12:55;6.50;;;5.25;;
76758;SDS011;65701;45.588;5.186;2023-07-30T08:15:21;5.00;;;4.00;;
76758;SDS011;65701;45.588;5.186;2023-07-30T08:17:46;4.75;;;4.75;;
76758;SDS011;65701;45.588;5.186;2023-07-30T08:20:12;5.25;;;5.25;;
76758;SDS011;65701;45.588;5.186;2023-07-30T08:22:37;4.25;;;4.25;;
76758;SDS011;65701;45.588;5.186;2023-07-30T08:25:03;3.50;;;3.50;;
76758;SDS011;65701;45.588;5.186;2023-07-30T08:27:30;6.25;;;3.00;;
76758;SDS011;65701;45.588;5.186;2023-07-30T08:29:55;7.00;;;4.75;;
76758;SDS011;65701;45.588;5.186;2023-07-30T08:32:20;3.25;;;3.25;;
76758;SDS011;65701;45.588;5.186;2023-07-30T08:34:46;5.75;;;4.00;;
76758;SDS011;65701;45.588;5.186;2023-07-30T08:37:12;5.50;;;5.00;;
76758;SDS011;65701;45.588;5.186;2023-07-30T08:39:37;5.75;;;5.00;;
76758;SDS011;65701;45.588;5.186;2023-07-30T08:42:03;4.00;;;2.25;;
76758;SDS011;65701;45.588;5.186;2023-07-30T08:44:28;4.75;;;4.75;;
76758;SDS011;65701;45.588;5.186;2023-07-30T08:46:54;4.25;;;4.25;;
76758;SDS011;65701;45.588;5.186;2023-07-30T08:49:20;9.75;;;5.00;;
76758;SDS011;65701;45.588;5.186;2023-07-30T08:51:45;4.25;;;4.25;;
76758;SDS011;65701;45.588;5.186;2023-07-30T08:54:17;4.50;;;4.50;;
76758;SDS011;65701;45.588;5.186;2023-07-30T08:56:45;4.75;;;3.00;;
76758;SDS011;65701;45.588;5.186;2023-07-30T08:59:12;3.00;;;2.75;;
76758;SDS011;65701;45.588;5.186;2023-07-30T09:01:38;3.50;;;3.00;;
76758;SDS011;65701;45.588;5.186;2023-07-30T09:04:06;3.50;;;3.50;;
76758;SDS011;65701;45.588;5.186;2023-07-30T09:06:32;2.25;;;2.25;;
76758;SDS011;65701;45.588;5.186;2023-07-30T09:08:57;3.00;;;3.00;;
76758;SDS011;65701;45.588;5.186;2023-07-30T09:11:26;4.00;;;4.00;;
76758;SDS011;65701;45.588;5.186;2023-07-30T09:13:53;6.00;;;4.00;;
76758;SDS011;65701;45.588;5.186;2023-07-30T09:16:23;2.00;;;2.00;;
76758;SDS011;65701;45.588;5.186;2023-07-30T09:18:50;4.25;;;4.00;;
76758;SDS011;65701;45.588;5.186;2023-07-30T09:21:18;3.00;;;2.25;;
76758;SDS011;65701;45.588;5.186;2023-07-30T09:23:44;4.50;;;4.00;;
76758;SDS011;65701;45.588;5.186;2023-07-30T09:26:11;3.50;;;3.50;;
76758;SDS011;65701;45.588;5.186;2023-07-30T09:28:37;3.50;;;2.25;;
76758;SDS011;65701;45.588;5.186;2023-07-30T09:31:04;3.00;;;3.00;;
76758;SDS011;65701;45.588;5.186;2023-07-30T09:33:31;3.25;;;2.25;;
76758;SDS011;65701;45.588;5.186;2023-07-30T09:35:57;2.25;;;2.25;;
76758;SDS011;65701;45.588;5.186;2023-07-30T09:38:23;2.00;;;2.00;;
76758;SDS011;65701;45.588;5.186;2023-07-30T09:40:50;2.00;;;2.00;;
76758;SDS011;65701;45.588;5.186;2023-07-30T09:43:16;3.00;;;3.00;;
76758;SDS011;65701;45.588;5.186;2023-07-30T09:45:43;2.75;;;2.00;;
76758;SDS011;65701;45.588;5.186;2023-07-30T09:48:12;1.00;;;1.00;;
76758;SDS011;65701;45.588;5.186;2023-07-30T09:50:37;4.50;;;3.75;;
76758;SDS011;65701;45.588;5.186;2023-07-30T09:53:03;2.75;;;2.75;;
76758;SDS011;65701;45.588;5.186;2023-07-30T09:55:29;2.00;;;2.00;;
76758;SDS011;65701;45.588;5.186;2023-07-30T09:57:55;1.25;;;1.25;;
76758;SDS011;65701;45.588;5.186;2023-07-30T10:00:20;3.00;;;3.00;;
76758;SDS011;65701;45.588;5.186;2023-07-30T10:02:47;2.00;;;2.00;;
76758;SDS011;65701;45.588;5.186;2023-07-30T10:05:15;2.00;;;2.00;;
76758;SDS011;65701;45.588;5.186;2023-07-30T10:07:44;3.25;;;3.25;;
76758;SDS011;65701;45.588;5.186;2023-07-30T10:10:16;1.00;;;1.00;;
76758;SDS011;65701;45.588;5.186;2023-07-30T10:12:43;3.00;;;3.00;;
76758;SDS011;65701;45.588;5.186;2023-07-30T10:15:09;2.00;;;2.00;;
76758;SDS011;65701;45.588;5.186;2023-07-30T10:17:35;1.00;;;1.00;;
76758;SDS011;65701;45.588;5.186;2023-07-30T10:22:55;2.00;;;2.00;;
76758;SDS011;65701;45.588;5.186;2023-07-30T10:25:22;2.00;;;2.00;;
76758;SDS011;65701;45.588;5.186;2023-07-30T10:27:53;1.50;;;1.50;;
76758;SDS011;65701;45.588;5.186;2023-07-30T10:30:19;2.25;;;2.25;;
76758;SDS011;65701;45.588;5.186;2023-07-30T10:35:36;1.00;;;1.00;;
76758;SDS011;65701;45.588;5.186;2023-07-30T10:38:18;4.50;;;1.50;;
76758;SDS011;65701;45.588;5.186;2023-07-30T10:41:01;2.00;;;1.00;;
76758;SDS011;65701;45.588;5.186;2023-07-30T10:43:41;1.50;;;1.50;;
76758;SDS011;65701;45.588;5.186;2023-07-30T10:46:14;1.00;;;1.00;;
76758;SDS011;65701;45.588;5.186;2023-07-30T10:48:41;2.00;;;2.00;;
76758;SDS011;65701;45.588;5.186;2023-07-30T10:51:09;2.00;;;2.00;;
76758;SDS011;65701;45.588;5.186;2023-07-30T10:53:36;1.25;;;1.25;;
76758;SDS011;65701;45.588;5.186;2023-07-30T10:56:05;1.25;;;1.25;;
76758;SDS011;65701;45.588;5.186;2023-07-30T10:58:33;3.00;;;1.25;;
76758;SDS011;65701;45.588;5.186;2023-07-30T11:01:06;1.00;;;1.00;;
76758;SDS011;65701;45.588;5.186;2023-07-30T11:03:33;2.00;;;2.00;;
76758;SDS011;65701;45.588;5.186;2023-07-30T11:05:59;1.75;;;1.75;;
76758;SDS011;65701;45.588;5.186;2023-07-30T11:08:39;2.00;;;2.00;;
76758;SDS011;65701;45.588;5.186;2023-07-30T11:11:06;2.25;;;1.50;;
76758;SDS011;65701;45.588;5.186;2023-07-30T11:13:37;3.00;;;2.00;;
76758;SDS011;65701;45.588;5.186;2023-07-30T11:16:07;1.00;;;1.00;;
76758;SDS011;65701;45.588;5.186;2023-07-30T11:18:33;2.00;;;2.00;;
76758;SDS011;65701;45.588;5.186;2023-07-30T11:21:04;2.25;;;1.00;;
76758;SDS011;65701;45.588;5.186;2023-07-30T11:23:29;2.00;;;2.00;;
76758;SDS011;65701;45.588;5.186;2023-07-30T11:25:55;1.25;;;1.25;;
76758;SDS011;65701;45.588;5.186;2023-07-30T11:28:27;3.50;;;3.50;;
76758;SDS011;65701;45.588;5.186;2023-07-30T11:31:07;1.00;;;1.00;;
76758;SDS011;65701;45.588;5.186;2023-07-30T11:33:43;1.00;;;1.00;;
76758;SDS011;65701;45.588;5.186;2023-07-30T11:36:21;2.00;;;2.00;;
76758;SDS011;65701;45.588;5.186;2023-07-30T11:38:47;2.00;;;1.00;;
76758;SDS011;65701;45.588;5.186;2023-07-30T11:41:14;2.00;;;2.00;;
76758;SDS011;65701;45.588;5.186;2023-07-30T11:43:41;1.00;;;1.00;;
76758;SDS011;65701;45.588;5.186;2023-07-30T11:48:41;1.00;;;1.00;;
76758;SDS011;65701;45.588;5.186;2023-07-30T11:51:18;1.00;;;1.00;;
76758;SDS011;65701;45.588;5.186;2023-07-30T11:56:27;4.00;;;2.75;;
76758;SDS011;65701;45.588;5.186;2023-07-30T11:58:55;2.00;;;2.00;;
76758;SDS011;65701;45.588;5.186;2023-07-30T12:01:22;3.50;;;1.75;;
76758;SDS011;65701;45.588;5.186;2023-07-30T12:03:50;0.75;;;0.75;;
76758;SDS011;65701;45.588;5.186;2023-07-30T12:06:15;1.50;;;1.50;;
76758;SDS011;65701;45.588;5.186;2023-07-30T12:08:41;2.50;;;1.00;;
76758;SDS011;65701;45.588;5.186;2023-07-30T12:11:07;3.00;;;2.00;;
76758;SDS011;65701;45.588;5.186;2023-07-30T12:13:41;3.50;;;2.75;;
76758;SDS011;65701;45.588;5.186;2023-07-30T12:16:10;4.00;;;2.25;;
76758;SDS011;65701;45.588;5.186;2023-07-30T12:18:37;2.00;;;2.00;;
76758;SDS011;65701;45.588;5.186;2023-07-30T12:21:04;1.25;;;1.25;;
76758;SDS011;65701;45.588;5.186;2023-07-30T12:23:32;1.50;;;1.50;;
76758;SDS011;65701;45.588;5.186;2023-07-30T12:26:02;1.75;;;1.75;;
76758;SDS011;65701;45.588;5.186;2023-07-30T12:28:30;1.25;;;1.00;;
76758;SDS011;65701;45.588;5.186;2023-07-30T12:30:56;3.00;;;2.00;;
76758;SDS011;65701;45.588;5.186;2023-07-30T12:33:22;1.75;;;1.75;;
76758;SDS011;65701;45.588;5.186;2023-07-30T12:35:47;3.00;;;3.00;;
76758;SDS011;65701;45.588;5.186;2023-07-30T12:38:15;0.00;;;0.00;;
76758;SDS011;65701;45.588;5.186;2023-07-30T12:40:40;3.25;;;2.00;;
76758;SDS011;65701;45.588;5.186;2023-07-30T12:43:06;3.00;;;2.00;;
76758;SDS011;65701;45.588;5.186;2023-07-30T12:45:31;1.50;;;1.50;;
76758;SDS011;65701;45.588;5.186;2023-07-30T12:47:57;2.00;;;2.00;;
76758;SDS011;65701;45.588;5.186;2023-07-30T12:50:22;1.75;;;1.50;;
76758;SDS011;65701;45.588;5.186;2023-07-30T12:52:48;1.50;;;1.50;;
76758;SDS011;65701;45.588;5.186;2023-07-30T12:55:13;2.00;;;2.00;;
76758;SDS011;65701;45.588;5.186;2023-07-30T12:57:39;1.00;;;1.00;;
76758;SDS011;65701;45.588;5.186;2023-07-30T13:00:05;1.50;;;1.00;;
76758;SDS011;65701;45.588;5.186;2023-07-30T13:02:30;3.00;;;1.00;;
76758;SDS011;65701;45.588;5.186;2023-07-30T13:04:59;1.75;;;1.75;;
76758;SDS011;65701;45.588;5.186;2023-07-30T13:07:25;1.25;;;1.00;;
76758;SDS011;65701;45.588;5.186;2023-07-30T13:09:59;2.50;;;1.00;;
76758;SDS011;65701;45.588;5.186;2023-07-30T13:12:30;1.00;;;1.00;;
76758;SDS011;65701;45.588;5.186;2023-07-30T13:14:56;1.00;;;1.00;;
76758;SDS011;65701;45.588;5.186;2023-07-30T13:17:21;2.50;;;2.50;;
76758;SDS011;65701;45.588;5.186;2023-07-30T13:19:47;1.50;;;1.00;;
76758;SDS011;65701;45.588;5.186;2023-07-30T13:22:12;3.00;;;2.00;;
76758;SDS011;65701;45.588;5.186;2023-07-30T13:24:37;1.50;;;1.50;;
76758;SDS011;65701;45.588;5.186;2023-07-30T13:27:04;1.00;;;1.00;;
76758;SDS011;65701;45.588;5.186;2023-07-30T13:29:30;3.00;;;3.00;;
76758;SDS011;65701;45.588;5.186;2023-07-30T13:31:56;2.00;;;2.00;;
76758;SDS011;65701;45.588;5.186;2023-07-30T13:34:21;4.00;;;2.00;;
76758;SDS011;65701;45.588;5.186;2023-07-30T13:36:47;3.00;;;2.00;;
76758;SDS011;65701;45.588;5.186;2023-07-30T13:39:12;1.00;;;1.00;;
76758;SDS011;65701;45.588;5.186;2023-07-30T13:41:38;1.00;;;1.00;;
76758;SDS011;65701;45.588;5.186;2023-07-30T13:44:03;3.00;;;1.00;;
76758;SDS011;65701;45.588;5.186;2023-07-30T13:46:29;1.00;;;1.00;;
76758;SDS011;65701;45.588;5.186;2023-07-30T13:48:54;2.00;;;2.00;;
76758;SDS011;65701;45.588;5.186;2023-07-30T13:51:20;0.25;;;0.25;;
76758;SDS011;65701;45.588;5.186;2023-07-30T13:53:45;1.25;;;1.25;;
76758;SDS011;65701;45.588;5.186;2023-07-30T13:56:10;1.00;;;1.00;;
76758;SDS011;65701;45.588;5.186;2023-07-30T13:58:36;2.50;;;2.50;;
76758;SDS011;65701;45.588;5.186;2023-07-30T14:01:03;2.50;;;1.50;;
76758;SDS011;65701;45.588;5.186;2023-07-30T14:03:29;1.00;;;1.00;;
76758;SDS011;65701;45.588;5.186;2023-07-30T14:05:54;3.50;;;2.25;;
76758;SDS011;65701;45.588;5.186;2023-07-30T14:08:20;1.50;;;1.25;;
76758;SDS011;65701;45.588;5.186;2023-07-30T14:10:45;0.00;;;0.00;;
76758;SDS011;65701;45.588;5.186;2023-07-30T14:13:11;2.00;;;1.00;;
76758;SDS011;65701;45.588;5.186;2023-07-30T14:15:36;1.00;;;1.00;;
76758;SDS011;65701;45.588;5.186;2023-07-30T14:18:02;1.00;;;1.00;;
76758;SDS011;65701;45.588;5.186;2023-07-30T14:20:27;0.75;;;0.75;;
76758;SDS011;65701;45.588;5.186;2023-07-30T14:22:53;1.00;;;1.00;;
76758;SDS011;65701;45.588;5.186;2023-07-30T14:25:19;2.00;;;1.25;;
76758;SDS011;65701;45.588;5.186;2023-07-30T14:27:45;1.75;;;0.75;;
76758;SDS011;65701;45.588;5.186;2023-07-30T14:30:10;1.00;;;1.00;;
76758;SDS011;65701;45.588;5.186;2023-07-30T14:32:36;0.50;;;0.50;;
76758;SDS011;65701;45.588;5.186;2023-07-30T14:35:01;1.25;;;1.25;;
76758;SDS011;65701;45.588;5.186;2023-07-30T14:37:27;1.25;;;1.00;;
76758;SDS011;65701;45.588;5.186;2023-07-30T14:39:53;1.25;;;1.25;;
76758;SDS011;65701;45.588;5.186;2023-07-30T14:42:18;2.75;;;1.00;;
76758;SDS011;65701;45.588;5.186;2023-07-30T14:44:44;0.75;;;0.75;;
76758;SDS011;65701;45.588;5.186;2023-07-30T14:47:09;1.00;;;1.00;;
76758;SDS011;65701;45.588;5.186;2023-07-30T14:49:35;1.00;;;1.00;;
76758;SDS011;65701;45.588;5.186;2023-07-30T14:52:02;1.25;;;1.00;;